createdAt,value
2018-05-09T00:00:35.415Z,80.44
2018-05-09T00:03:04.439Z,80.51
2018-05-09T00:05:32.682Z,81.24
2018-05-09T00:08:01.711Z,81.82
2018-05-09T00:10:29.958Z,80.79
2018-05-09T00:12:58.991Z,78.40
2018-05-09T00:15:27.248Z,77.98
2018-05-09T00:17:56.266Z,80.35
2018-05-09T00:20:24.521Z,80.99
2018-05-09T00:22:53.540Z,80.87
2018-05-09T00:25:21.783Z,79.29
2018-05-09T00:27:50.036Z,80.24
2018-05-09T00:30:18.279Z,79.92
2018-05-09T00:32:46.534Z,80.37
2018-05-09T00:35:15.556Z,80.49
2018-05-09T00:37:43.815Z,82.57
2018-05-09T00:40:12.834Z,80.96
2018-05-09T00:42:41.074Z,80.47
2018-05-09T00:45:09.315Z,80.92
2018-05-09T00:47:37.576Z,81.99
2018-05-09T00:50:05.839Z,82.16
2018-05-09T00:52:34.070Z,81.11
2018-05-09T00:55:02.321Z,81.75
2018-05-09T00:57:30.570Z,80.85
2018-05-09T00:59:59.578Z,81.38
2018-05-09T01:02:28.599Z,82.50
2018-05-09T01:04:56.846Z,82.90
2018-05-09T01:07:26.072Z,83.01
2018-05-09T01:09:54.319Z,81.91
2018-05-09T01:12:22.575Z,79.82
2018-05-09T01:14:50.819Z,82.12
2018-05-09T01:17:19.080Z,82.42
2018-05-09T01:19:48.092Z,82.67
2018-05-09T01:22:16.347Z,82.86
2018-05-09T01:24:45.364Z,83.19
2018-05-09T01:27:13.639Z,83.54
2018-05-09T01:29:42.658Z,83.13
2018-05-09T01:32:10.910Z,83.23
2018-05-09T01:34:39.932Z,83.00
2018-05-09T01:37:08.167Z,82.24
2018-05-09T01:39:36.426Z,83.58
2018-05-09T01:42:04.672Z,82.50
2018-05-09T01:44:32.929Z,82.96
2018-05-09T01:47:01.935Z,83.60
2018-05-09T01:49:30.189Z,84.14
2018-05-09T01:51:58.444Z,84.80
2018-05-09T01:54:26.702Z,84.95
2018-05-09T01:56:54.947Z,85.17
2018-05-09T01:59:23.278Z,85.51
2018-05-09T02:01:51.511Z,85.08
2018-05-09T02:04:20.540Z,84.80
2018-05-09T02:06:48.774Z,85.34
2018-05-09T02:09:17.794Z,85.82
2018-05-09T02:11:46.048Z,85.89
2018-05-09T02:14:14.296Z,85.71
2018-05-09T02:16:42.546Z,85.99
2018-05-09T02:19:10.797Z,86.19
2018-05-09T02:21:39.807Z,85.72
2018-05-09T02:24:08.865Z,86.50
2018-05-09T02:26:37.063Z,86.39
2018-05-09T02:29:05.312Z,86.52
2018-05-09T02:31:34.500Z,85.93
2018-05-09T02:34:02.788Z,85.64
2018-05-09T02:36:31.041Z,85.30
2018-05-09T02:38:59.312Z,86.69
2018-05-09T02:41:28.320Z,86.90
2018-05-09T02:43:56.573Z,87.05
2018-05-09T02:46:25.595Z,86.80
2018-05-09T02:48:53.835Z,87.76
2018-05-09T02:51:22.092Z,87.22
2018-05-09T02:53:50.335Z,86.49
2018-05-09T02:56:18.591Z,87.25
2018-05-09T02:58:47.602Z,86.62
2018-05-09T03:01:16.637Z,86.00
2018-05-09T03:03:44.877Z,86.83
2018-05-09T03:06:13.904Z,87.84
2018-05-09T03:08:42.157Z,87.25
2018-05-09T03:11:11.175Z,87.44
2018-05-09T03:13:39.415Z,87.69
2018-05-09T03:16:08.436Z,87.59
2018-05-09T03:18:36.687Z,88.41
2018-05-09T03:21:04.956Z,87.59
2018-05-09T03:23:33.205Z,87.44
2018-05-09T03:26:01.455Z,87.94
2018-05-09T03:28:29.707Z,88.09
2018-05-09T03:30:57.971Z,88.01
2018-05-09T03:33:26.211Z,88.02
2018-05-09T03:35:54.469Z,88.63
2018-05-09T03:38:23.469Z,88.56
2018-05-09T03:40:52.492Z,88.57
2018-05-09T03:43:20.727Z,88.50
2018-05-09T03:45:48.983Z,88.52
2018-05-09T03:48:17.237Z,88.13
2018-05-09T03:50:45.495Z,87.48
2018-05-09T03:53:14.584Z,88.10
2018-05-09T03:55:42.759Z,88.18
2018-05-09T03:58:11.768Z,87.43
2018-05-09T04:00:40.752Z,87.29
2018-05-09T04:03:27.306Z,86.88
2018-05-09T04:09:21.257Z,85.68
2018-05-09T04:11:49.500Z,85.71
2018-05-09T04:14:18.503Z,86.51
2018-05-09T04:16:47.523Z,86.04
2018-05-09T04:19:15.770Z,84.57
2018-05-09T04:21:44.785Z,84.88
2018-05-09T04:24:13.050Z,84.16
2018-05-09T04:26:42.086Z,83.42
2018-05-09T04:29:10.326Z,82.54
2018-05-09T04:31:39.339Z,82.27
2018-05-09T04:34:07.593Z,81.36
2018-05-09T04:36:35.866Z,81.11
2018-05-09T04:39:04.122Z,79.47
2018-05-09T04:41:32.384Z,81.40
2018-05-09T04:44:00.623Z,82.66
2018-05-09T04:46:29.647Z,83.17
2018-05-09T04:48:57.891Z,84.07
2018-05-09T04:51:26.151Z,83.75
2018-05-09T04:53:54.391Z,83.15
2018-05-09T04:56:23.884Z,82.72
2018-05-09T04:58:52.892Z,84.23
2018-05-09T05:01:21.153Z,83.16
2018-05-09T05:03:50.176Z,80.87
2018-05-09T05:06:18.420Z,65.64
2018-05-09T05:08:46.675Z,52.49
2018-05-09T05:11:14.927Z,44.67
2018-05-09T05:13:43.184Z,40.05
2018-05-09T05:16:12.203Z,36.96
2018-05-09T05:18:40.536Z,36.43
2018-05-09T05:21:08.792Z,34.88
2018-05-09T05:23:37.053Z,34.74
2018-05-09T05:26:05.307Z,35.08
2018-05-09T05:28:33.573Z,33.38
2018-05-09T05:31:02.601Z,32.23
2018-05-09T05:33:30.859Z,28.40
2018-05-09T05:35:59.873Z,28.53
2018-05-09T05:38:28.133Z,28.32
2018-05-09T05:40:57.152Z,25.84
2018-05-09T05:43:25.421Z,24.11
2018-05-09T05:45:54.431Z,25.04
2018-05-09T05:48:23.546Z,26.31
2018-05-09T05:50:51.811Z,27.85
2018-05-09T05:53:20.076Z,27.26
2018-05-09T05:55:48.351Z,24.63
2018-05-09T05:58:17.372Z,27.07
2018-05-09T06:00:45.637Z,26.55
2018-05-09T06:03:13.900Z,25.69
2018-05-09T06:05:42.930Z,28.02
2018-05-09T06:08:11.186Z,26.98
2018-05-09T06:10:40.208Z,29.49
2018-05-09T06:13:08.472Z,25.94
2018-05-09T06:15:36.730Z,29.36
2018-05-09T06:18:04.992Z,28.04
2018-05-09T06:20:33.242Z,27.05
2018-05-09T06:23:01.503Z,25.03
2018-05-09T06:25:29.760Z,26.79
2018-05-09T06:27:58.801Z,24.18
2018-05-09T06:30:27.049Z,29.70
2018-05-09T06:32:56.063Z,26.83
2018-05-09T06:35:24.330Z,26.91
2018-05-09T06:37:52.584Z,23.66
2018-05-09T06:40:20.846Z,24.09
2018-05-09T06:42:49.090Z,25.32
2018-05-09T06:45:17.355Z,25.27
2018-05-09T06:47:45.602Z,23.11
2018-05-09T06:50:13.865Z,23.08
2018-05-09T06:52:42.116Z,26.51
2018-05-09T06:55:10.380Z,23.51
2018-05-09T06:57:38.623Z,21.52
2018-05-09T07:00:06.891Z,19.88
2018-05-09T07:02:35.148Z,20.78
2018-05-09T07:05:03.409Z,25.12
2018-05-09T07:07:31.664Z,22.91
2018-05-09T07:10:00.690Z,26.22
2018-05-09T07:12:28.940Z,25.54
2018-05-09T07:14:57.971Z,23.64
2018-05-09T07:17:26.215Z,23.34
2018-05-09T07:19:55.248Z,21.07
2018-05-09T07:22:23.507Z,20.11
2018-05-09T07:24:52.527Z,22.72
2018-05-09T07:27:20.782Z,21.76
2018-05-09T07:29:49.855Z,21.03
2018-05-09T07:32:18.112Z,24.71
2018-05-09T07:34:46.384Z,22.63
2018-05-09T07:37:14.641Z,28.26
2018-05-09T07:39:42.904Z,28.82
2018-05-09T07:42:11.223Z,24.97
2018-05-09T07:44:39.430Z,24.39
2018-05-09T07:47:07.686Z,23.77
2018-05-09T07:49:35.948Z,27.63
2018-05-09T07:52:04.199Z,25.62
2018-05-09T07:54:34.150Z,23.80
2018-05-09T07:57:02.412Z,27.86
2018-05-09T07:59:30.663Z,24.17
2018-05-09T08:01:58.937Z,21.52
2018-05-09T08:04:27.184Z,20.88
2018-05-09T08:06:55.448Z,18.30
2018-05-09T08:09:23.699Z,20.16
2018-05-09T08:11:52.729Z,20.33
2018-05-09T08:14:20.979Z,22.69
2018-05-09T08:16:49.484Z,19.69
2018-05-09T08:19:17.741Z,20.00
2018-05-09T08:21:46.759Z,23.09
2018-05-09T08:24:15.007Z,24.23
2018-05-09T08:26:43.271Z,21.91
2018-05-09T08:29:11.532Z,21.82
2018-05-09T08:31:39.795Z,21.90
2018-05-09T08:34:08.046Z,21.70
2018-05-09T08:36:37.074Z,23.89
2018-05-09T08:39:05.333Z,26.67
2018-05-09T08:41:34.352Z,26.03
2018-05-09T08:44:02.761Z,21.67
2018-05-09T08:46:31.635Z,23.71
2018-05-09T08:48:59.878Z,22.43
2018-05-09T08:51:28.913Z,21.61
2018-05-09T08:53:57.168Z,22.62
2018-05-09T08:56:25.422Z,20.25
2018-05-09T08:58:54.443Z,18.96
2018-05-09T09:01:22.713Z,27.99
2018-05-09T09:03:51.734Z,29.77
2018-05-09T09:06:20.007Z,23.49
2018-05-09T09:08:50.266Z,23.60
2018-05-09T09:11:18.526Z,23.26
2018-05-09T09:13:46.775Z,24.76
2018-05-09T09:16:15.807Z,23.00
2018-05-09T09:18:44.131Z,22.99
2018-05-09T09:21:12.323Z,24.60
2018-05-09T09:23:40.589Z,18.41
2018-05-09T09:26:08.826Z,17.43
2018-05-09T09:28:37.096Z,20.78
2018-05-09T09:31:05.339Z,19.64
2018-05-09T09:33:33.620Z,20.35
2018-05-09T09:36:01.896Z,22.67
2018-05-09T09:38:30.155Z,22.11
2018-05-09T09:40:58.406Z,23.02
2018-05-09T09:43:26.668Z,22.42
2018-05-09T09:45:54.921Z,20.18
2018-05-09T09:48:23.183Z,22.35
2018-05-09T09:50:52.674Z,21.10
2018-05-09T09:53:20.944Z,25.70
2018-05-09T09:55:49.187Z,23.41
2018-05-09T09:58:18.293Z,21.64
2018-05-09T10:00:47.519Z,17.64
2018-05-09T10:03:15.784Z,21.75
2018-05-09T10:05:44.037Z,21.52
2018-05-09T10:08:12.516Z,24.23
2018-05-09T10:10:40.762Z,22.48
2018-05-09T10:13:09.020Z,22.85
2018-05-09T10:15:37.586Z,24.97
2018-05-09T10:18:06.613Z,24.41
2018-05-09T10:20:34.869Z,19.86
2018-05-09T10:23:03.894Z,20.91
2018-05-09T10:25:32.152Z,20.75
2018-05-09T10:28:00.410Z,15.23
2018-05-09T10:30:29.422Z,23.67
2018-05-09T10:32:58.450Z,18.98
2018-05-09T10:35:26.707Z,19.25
2018-05-09T10:37:54.979Z,22.86
2018-05-09T10:40:23.994Z,17.67
2018-05-09T10:42:52.830Z,15.24
2018-05-09T10:45:21.080Z,25.89
2018-05-09T10:47:49.331Z,30.31
2018-05-09T10:50:18.358Z,32.05
2018-05-09T10:52:46.612Z,26.97
2018-05-09T10:55:14.882Z,20.71
2018-05-09T10:57:43.890Z,25.08
2018-05-09T11:00:12.145Z,31.13
2018-05-09T11:02:40.411Z,33.80
2018-05-09T11:05:08.693Z,32.74
2018-05-09T11:07:36.923Z,35.18
2018-05-09T11:10:05.196Z,35.88
2018-05-09T11:12:34.214Z,38.79
2018-05-09T11:15:02.492Z,38.23
2018-05-09T11:17:31.052Z,38.60
2018-05-09T11:19:59.300Z,31.93
2018-05-09T11:22:27.561Z,30.42
2018-05-09T11:24:57.055Z,32.24
2018-05-09T11:27:25.308Z,30.86
2018-05-09T11:29:53.572Z,29.14
2018-05-09T11:32:22.582Z,32.85
2018-05-09T11:34:50.859Z,25.56
2018-05-09T11:37:19.881Z,28.00
2018-05-09T11:39:48.139Z,32.00
2018-05-09T11:42:17.168Z,31.93
2018-05-09T11:44:45.444Z,33.94
2018-05-09T11:47:14.519Z,33.51
2018-05-09T11:49:43.535Z,34.52
2018-05-09T11:52:11.801Z,35.87
2018-05-09T11:54:40.821Z,30.22
2018-05-09T11:57:09.083Z,35.58
2018-05-09T11:59:37.330Z,31.86
2018-05-09T12:02:05.587Z,29.20
2018-05-09T12:04:33.848Z,29.49
2018-05-09T12:07:02.115Z,34.16
2018-05-09T12:09:30.364Z,34.28
2018-05-09T12:11:59.392Z,34.58
2018-05-09T12:14:27.635Z,37.12
2018-05-09T12:16:55.903Z,38.08
2018-05-09T12:19:24.158Z,39.13
2018-05-09T12:21:52.419Z,39.45
2018-05-09T12:24:20.668Z,39.64
2018-05-09T12:26:49.701Z,40.46
2018-05-09T12:29:17.955Z,40.01
2018-05-09T12:31:46.227Z,40.46
2018-05-09T12:34:15.245Z,39.89
2018-05-09T12:36:44.395Z,39.57
2018-05-09T12:39:12.644Z,40.25
2018-05-09T12:41:40.904Z,40.68
2018-05-09T12:44:09.162Z,39.11
2018-05-09T12:46:37.415Z,38.92
2018-05-09T12:49:05.668Z,38.85
2018-05-09T12:51:33.927Z,38.83
2018-05-09T12:54:02.180Z,38.48
2018-05-09T12:56:31.204Z,36.35
2018-05-09T12:59:00.310Z,36.29
2018-05-09T13:01:28.575Z,34.76
2018-05-09T13:03:56.846Z,35.38
2018-05-09T13:06:25.851Z,34.83
2018-05-09T13:08:54.115Z,34.49
2018-05-09T13:11:23.383Z,32.19
2018-05-09T13:13:51.638Z,33.34
2018-05-09T13:16:19.903Z,33.13
2018-05-09T13:18:48.168Z,32.57
2018-05-09T13:21:16.433Z,33.36
2018-05-09T13:23:44.687Z,33.06
2018-05-09T13:26:12.944Z,32.84
2018-05-09T13:28:41.208Z,31.29
2018-05-09T13:31:09.464Z,32.80
2018-05-09T13:33:38.494Z,31.33
2018-05-09T13:36:06.747Z,33.01
2018-05-09T13:38:35.779Z,31.57
2018-05-09T13:41:04.034Z,30.12
2018-05-09T13:43:32.294Z,31.27
2018-05-09T13:46:01.399Z,29.45
2018-05-09T13:48:29.584Z,29.06
2018-05-09T13:50:58.595Z,29.76
2018-05-09T13:53:26.889Z,30.48
2018-05-09T13:55:55.146Z,34.01
2018-05-09T13:58:24.168Z,36.31
2018-05-09T14:00:52.428Z,36.57
2018-05-09T14:03:21.456Z,37.13
2018-05-09T14:05:49.707Z,34.83
2018-05-09T14:08:18.740Z,35.66
2018-05-09T14:10:46.991Z,35.04
2018-05-09T14:13:15.251Z,35.18
2018-05-09T14:15:44.267Z,35.18
2018-05-09T14:18:12.530Z,31.73
2018-05-09T14:20:41.559Z,27.59
2018-05-09T14:23:09.823Z,25.52
2018-05-09T14:25:38.836Z,26.64
2018-05-09T14:28:07.095Z,26.63
2018-05-09T14:30:36.134Z,27.99
2018-05-09T14:33:04.388Z,27.43
2018-05-09T14:35:33.494Z,25.34
2018-05-09T14:38:01.748Z,31.45
2018-05-09T14:40:30.779Z,32.84
2018-05-09T14:42:59.044Z,35.36
2018-05-09T14:45:27.301Z,32.99
2018-05-09T14:47:56.314Z,32.59
2018-05-09T14:50:24.580Z,32.68
2018-05-09T14:52:53.623Z,31.19
2018-05-09T14:55:21.885Z,31.47
2018-05-09T14:57:50.132Z,34.94
2018-05-09T15:00:18.421Z,30.19
2018-05-09T15:02:46.659Z,33.92
2018-05-09T15:05:14.919Z,36.04
2018-05-09T15:07:43.177Z,37.32
2018-05-09T15:10:11.431Z,38.76
2018-05-09T15:12:40.451Z,36.86
2018-05-09T15:15:09.484Z,36.24
2018-05-09T15:17:37.745Z,36.33
2018-05-09T15:20:06.020Z,36.02
2018-05-09T15:22:34.263Z,35.69
2018-05-09T15:25:02.531Z,35.09
2018-05-09T15:27:30.791Z,35.20
2018-05-09T15:29:59.050Z,31.62
2018-05-09T15:32:27.302Z,32.33
2018-05-09T15:34:56.329Z,33.57
2018-05-09T15:37:25.431Z,36.01
2018-05-09T15:39:53.709Z,37.05
2018-05-09T15:42:21.949Z,39.63
2018-05-09T15:44:51.087Z,36.32
2018-05-09T15:47:19.223Z,37.05
2018-05-09T15:49:47.541Z,38.16
2018-05-09T15:52:15.788Z,36.60
2018-05-09T15:54:44.047Z,40.43
2018-05-09T15:57:12.291Z,43.16
2018-05-09T15:59:40.555Z,44.90
2018-05-09T16:02:08.833Z,45.59
2018-05-09T16:04:37.076Z,43.96
2018-05-09T16:07:05.896Z,42.23
2018-05-09T16:09:34.927Z,47.19
2018-05-09T16:12:03.186Z,45.35
2018-05-09T16:14:32.195Z,44.80
2018-05-09T16:17:00.455Z,42.50
2018-05-09T16:19:29.473Z,43.07
2018-05-09T16:21:57.740Z,40.19
2018-05-09T16:24:26.751Z,40.93
2018-05-09T16:26:55.024Z,39.14
2018-05-09T16:29:23.270Z,38.81
2018-05-09T16:31:51.531Z,35.46
2018-05-09T16:34:19.788Z,37.12
2018-05-09T16:36:48.045Z,41.38
2018-05-09T16:39:16.308Z,37.51
2018-05-09T16:41:45.331Z,35.90
2018-05-09T16:44:13.586Z,36.28
2018-05-09T16:46:42.609Z,35.89
2018-05-09T16:49:11.685Z,36.22
2018-05-09T16:51:40.712Z,35.94
2018-05-09T16:54:08.970Z,36.74
2018-05-09T16:56:38.009Z,37.54
2018-05-09T16:59:06.261Z,38.53
2018-05-09T17:01:34.608Z,39.87
2018-05-09T17:04:03.536Z,39.67
2018-05-09T17:06:31.796Z,39.50
2018-05-09T17:09:00.820Z,39.33
2018-05-09T17:11:29.081Z,39.73
2018-05-09T17:13:58.097Z,40.58
2018-05-09T17:16:26.359Z,40.49
2018-05-09T17:18:55.390Z,40.83
2018-05-09T17:21:42.181Z,41.72
2018-05-09T17:24:10.422Z,42.57
2018-05-09T17:26:39.467Z,43.32
2018-05-09T17:29:07.743Z,43.42
2018-05-09T17:31:36.003Z,45.95
2018-05-09T17:34:04.253Z,44.36
2018-05-09T17:36:32.592Z,45.96
2018-05-09T17:39:00.770Z,45.06
2018-05-09T17:41:29.040Z,45.71
2018-05-09T17:43:57.291Z,45.89
2018-05-09T17:46:26.319Z,45.86
2018-05-09T17:48:55.821Z,46.14
2018-05-09T17:51:24.093Z,45.61
2018-05-09T17:53:53.110Z,47.70
2018-05-09T17:56:21.389Z,47.79
2018-05-09T17:58:49.681Z,47.29
2018-05-09T18:01:18.664Z,46.48
2018-05-09T18:03:46.915Z,47.58
2018-05-09T18:06:15.951Z,47.71
2018-05-09T18:08:44.203Z,47.54
2018-05-09T18:11:13.216Z,48.32
2018-05-09T18:13:41.483Z,48.79
2018-05-09T18:16:10.515Z,47.87
2018-05-09T18:18:38.783Z,48.33
2018-05-09T18:21:08.292Z,48.84
2018-05-09T18:23:36.545Z,48.89
2018-05-09T18:26:05.561Z,49.55
2018-05-09T18:28:33.932Z,50.41
2018-05-09T18:31:02.201Z,51.67
2018-05-09T18:33:31.245Z,53.28
2018-05-09T18:35:59.491Z,53.58
2018-05-09T18:38:28.527Z,55.51
2018-05-09T18:40:56.797Z,59.54
2018-05-09T18:43:25.055Z,62.17
2018-05-09T18:45:53.334Z,60.10
2018-05-09T18:48:22.382Z,58.71
2018-05-09T18:50:50.645Z,57.87
2018-05-09T18:53:18.908Z,57.94
2018-05-09T18:55:47.156Z,58.29
2018-05-09T18:58:16.184Z,59.44
2018-05-09T19:00:44.440Z,61.25
2018-05-09T19:03:13.560Z,62.95
2018-05-09T19:05:41.803Z,62.03
2018-05-09T19:08:10.063Z,64.12
2018-05-09T19:10:38.311Z,66.52
2018-05-09T19:13:06.571Z,66.18
2018-05-09T19:15:34.822Z,67.66
2018-05-09T19:18:03.078Z,69.16
2018-05-09T19:20:31.332Z,70.43
2018-05-09T19:23:00.059Z,69.44
2018-05-09T19:25:29.018Z,69.69
2018-05-09T19:27:57.280Z,70.13
2018-05-09T19:30:25.531Z,70.64
2018-05-09T19:32:53.803Z,71.98
2018-05-09T19:35:22.057Z,71.49
2018-05-09T19:37:50.323Z,70.12
2018-05-09T19:40:18.567Z,67.88
2018-05-09T19:42:47.599Z,67.06
2018-05-09T19:45:15.848Z,66.75
2018-05-09T19:47:44.935Z,66.38
2018-05-09T19:50:13.144Z,67.19
2018-05-09T19:52:41.399Z,68.12
2018-05-09T19:55:10.441Z,70.83
2018-05-09T19:57:38.676Z,71.42
2018-05-09T20:00:07.711Z,73.32
2018-05-09T20:02:35.963Z,74.28
2018-05-09T20:05:04.998Z,74.80
2018-05-09T20:07:33.253Z,73.96
2018-05-09T20:10:01.505Z,74.47
2018-05-09T20:12:29.783Z,75.70
2018-05-09T20:14:58.035Z,74.34
2018-05-09T20:17:26.283Z,75.36
2018-05-09T20:19:54.547Z,76.38
2018-05-09T20:22:23.568Z,77.38
2018-05-09T20:24:51.845Z,76.48
2018-05-09T20:27:20.097Z,72.91
2018-05-09T20:29:49.110Z,75.45
2018-05-09T20:32:34.910Z,77.48
2018-05-09T20:35:03.164Z,76.24
2018-05-09T20:37:31.410Z,76.40
2018-05-09T20:39:59.671Z,74.84
2018-05-09T20:42:27.952Z,72.38
2018-05-09T20:44:56.211Z,75.12
2018-05-09T20:47:24.463Z,76.01
2018-05-09T20:49:53.495Z,76.26
2018-05-09T20:52:22.820Z,75.69
2018-05-09T20:54:51.085Z,75.57
2018-05-09T20:57:19.336Z,73.61
2018-05-09T20:59:47.602Z,72.72
2018-05-09T21:02:16.619Z,74.23
2018-05-09T21:04:44.879Z,76.56
2018-05-09T21:07:13.891Z,74.50
2018-05-09T21:09:42.157Z,75.34
2018-05-09T21:12:11.172Z,76.65
2018-05-09T21:14:39.445Z,76.92
2018-05-09T21:17:08.442Z,79.24
2018-05-09T21:19:36.712Z,78.09
2018-05-09T21:22:05.723Z,78.71
2018-05-09T21:24:33.991Z,78.52
2018-05-09T21:27:03.051Z,78.59
2018-05-09T21:29:31.257Z,79.05
2018-05-09T21:31:59.518Z,77.66
2018-05-09T21:34:27.771Z,77.80
2018-05-09T21:36:56.035Z,77.40
2018-05-09T21:39:24.299Z,77.47
2018-05-09T21:41:53.307Z,73.60
2018-05-09T21:44:21.568Z,75.43
2018-05-09T21:46:50.603Z,75.02
2018-05-09T21:49:18.856Z,75.28
2018-05-09T21:51:47.130Z,77.58
2018-05-09T21:54:16.157Z,77.83
2018-05-09T21:56:44.434Z,79.08
2018-05-09T21:59:12.680Z,78.97
2018-05-09T22:01:41.715Z,79.79
2018-05-09T22:04:09.971Z,76.71
2018-05-09T22:06:40.253Z,78.86
2018-05-09T22:09:08.508Z,80.11
2018-05-09T22:11:36.759Z,78.26
2018-05-09T22:14:05.782Z,78.28
2018-05-09T22:16:34.035Z,78.12
2018-05-09T22:19:03.059Z,74.88
2018-05-09T22:21:31.327Z,74.64
2018-05-09T22:23:59.562Z,77.12
2018-05-09T22:26:27.835Z,78.70
2018-05-09T22:28:56.076Z,79.58
2018-05-09T22:31:24.334Z,79.12
2018-05-09T22:33:53.343Z,77.64
2018-05-09T22:36:21.604Z,78.35
2018-05-09T22:38:50.615Z,77.29
2018-05-09T22:41:20.111Z,77.00
2018-05-09T22:43:49.176Z,78.57
2018-05-09T22:46:17.411Z,78.26
2018-05-09T22:48:45.652Z,78.22
2018-05-09T22:51:13.902Z,79.86
2018-05-09T22:53:42.158Z,79.50
2018-05-09T22:56:10.415Z,79.60
2018-05-09T22:58:39.428Z,78.85
2018-05-09T23:01:07.684Z,78.65
2018-05-09T23:03:36.683Z,80.32
2018-05-09T23:06:05.709Z,78.81
2018-05-09T23:08:33.956Z,80.41
2018-05-09T23:11:03.167Z,79.80
2018-05-09T23:13:32.192Z,80.60
2018-05-09T23:16:00.447Z,78.71
2018-05-09T23:18:29.455Z,76.75
2018-05-09T23:20:57.722Z,76.73
2018-05-09T23:23:26.727Z,76.32
2018-05-09T23:25:54.987Z,78.47
2018-05-09T23:28:23.227Z,80.05
2018-05-09T23:30:51.480Z,80.79
2018-05-09T23:33:19.719Z,79.59
2018-05-09T23:35:47.962Z,81.18
2018-05-09T23:38:16.217Z,81.54
2018-05-09T23:40:44.483Z,81.51
2018-05-09T23:43:13.496Z,77.93
2018-05-09T23:45:41.741Z,77.73
2018-05-09T23:48:09.987Z,78.65
2018-05-09T23:50:38.231Z,78.42
2018-05-09T23:53:06.491Z,80.76
2018-05-09T23:55:35.594Z,80.84
2018-05-09T23:58:04.515Z,80.53
